sensor_id;sensor_type;location;lat;lon;timestamp;pressure;altitude;pressure_sealevel;temperature
64488;BMP280;50864;45.050;39.014;2022-09-09T00:03:43;101772.53;;;11.32
64488;BMP280;50864;45.050;39.014;2022-09-09T00:11:12;101782.69;;;11.25
64488;BMP280;50864;45.050;39.014;2022-09-09T00:14:03;101761.25;;;11.25
64488;BMP280;50864;45.050;39.014;2022-09-09T00:16:37;101770.59;;;11.22
64488;BMP280;50864;45.050;39.014;2022-09-09T00:19:33;101762.53;;;11.17
64488;BMP280;50864;45.050;39.014;2022-09-09T00:22:21;101761.50;;;11.13
64488;BMP280;50864;45.050;39.014;2022-09-09T00:24:56;101768.97;;;11.11
64488;BMP280;50864;45.050;39.014;2022-09-09T00:30:22;101767.03;;;11.06
64488;BMP280;50864;45.050;39.014;2022-09-09T00:32:54;101777.22;;;11.04
64488;BMP280;50864;45.050;39.014;2022-09-09T00:35:32;101777.47;;;11.03
64488;BMP280;50864;45.050;39.014;2022-09-09T00:38:33;101789.00;;;11.03
64488;BMP280;50864;45.050;39.014;2022-09-09T00:41:10;101793.28;;;10.99
64488;BMP280;50864;45.050;39.014;2022-09-09T00:43:40;101791.41;;;11.00
64488;BMP280;50864;45.050;39.014;2022-09-09T00:59:58;101806.37;;;10.96
64488;BMP280;50864;45.050;39.014;2022-09-09T01:02:41;101802.34;;;10.93
64488;BMP280;50864;45.050;39.014;2022-09-09T01:07:54;101806.87;;;10.93
64488;BMP280;50864;45.050;39.014;2022-09-09T01:10:36;101798.34;;;10.96
64488;BMP280;50864;45.050;39.014;2022-09-09T01:13:16;101787.09;;;10.99
64488;BMP280;50864;45.050;39.014;2022-09-09T01:15:46;101788.16;;;10.98
64488;BMP280;50864;45.050;39.014;2022-09-09T01:18:17;101775.84;;;10.97
64488;BMP280;50864;45.050;39.014;2022-09-09T01:28:56;101775.84;;;10.97
64488;BMP280;50864;45.050;39.014;2022-09-09T01:31:31;101773.19;;;10.97
64488;BMP280;50864;45.050;39.014;2022-09-09T01:33:59;101773.44;;;10.95
64488;BMP280;50864;45.050;39.014;2022-09-09T01:36:32;101772.59;;;10.90
64488;BMP280;50864;45.050;39.014;2022-09-09T01:38:59;101770.44;;;10.87
64488;BMP280;50864;45.050;39.014;2022-09-09T01:41:26;101778.69;;;10.80
64488;BMP280;50864;45.050;39.014;2022-09-09T01:43:55;101781.63;;;10.79
64488;BMP280;50864;45.050;39.014;2022-09-09T01:46:22;101787.50;;;10.76
64488;BMP280;50864;45.050;39.014;2022-09-09T01:48:51;101788.53;;;10.70
64488;BMP280;50864;45.050;39.014;2022-09-09T01:51:18;101788.47;;;10.65
64488;BMP280;50864;45.050;39.014;2022-09-09T01:53:46;101783.66;;;10.61
64488;BMP280;50864;45.050;39.014;2022-09-09T02:04:15;101790.59;;;10.57
64488;BMP280;50864;45.050;39.014;2022-09-09T02:06:45;101785.25;;;10.57
64488;BMP280;50864;45.050;39.014;2022-09-09T02:09:16;101792.47;;;10.57
64488;BMP280;50864;45.050;39.014;2022-09-09T02:11:47;101783.88;;;10.55
64488;BMP280;50864;45.050;39.014;2022-09-09T02:14:21;101781.94;;;10.50
64488;BMP280;50864;45.050;39.014;2022-09-09T02:16:52;101792.94;;;10.49
64488;BMP280;50864;45.050;39.014;2022-09-09T02:19:39;101798.53;;;10.47
64488;BMP280;50864;45.050;39.014;2022-09-09T02:22:09;101794.75;;;10.43
64488;BMP280;50864;45.050;39.014;2022-09-09T02:24:39;101800.63;;;10.40
64488;BMP280;50864;45.050;39.014;2022-09-09T02:27:08;101805.16;;;10.40
64488;BMP280;50864;45.050;39.014;2022-09-09T02:29:39;101810.50;;;10.40
64488;BMP280;50864;45.050;39.014;2022-09-09T02:32:12;101810.75;;;10.38
64488;BMP280;50864;45.050;39.014;2022-09-09T02:34:43;101802.19;;;10.36
64488;BMP280;50864;45.050;39.014;2022-09-09T02:37:11;101802.69;;;10.33
64488;BMP280;50864;45.050;39.014;2022-09-09T02:39:39;101804.56;;;10.33
64488;BMP280;50864;45.050;39.014;2022-09-09T02:42:06;101808.03;;;10.33
64488;BMP280;50864;45.050;39.014;2022-09-09T02:44:35;101804.88;;;10.36
64488;BMP280;50864;45.050;39.014;2022-09-09T02:50:04;101809.75;;;10.44
64488;BMP280;50864;45.050;39.014;2022-09-09T02:58:10;101809.41;;;10.36
64488;BMP280;50864;45.050;39.014;2022-09-09T03:00:39;101812.31;;;10.34
64488;BMP280;50864;45.050;39.014;2022-09-09T03:03:07;101819.53;;;10.34
64488;BMP280;50864;45.050;39.014;2022-09-09T03:05:36;101822.22;;;10.34
64488;BMP280;50864;45.050;39.014;2022-09-09T03:08:04;101826.28;;;10.36
64488;BMP280;50864;45.050;39.014;2022-09-09T03:10:32;101830.81;;;10.36
64488;BMP280;50864;45.050;39.014;2022-09-09T03:12:59;101838.03;;;10.35
64488;BMP280;50864;45.050;39.014;2022-09-09T03:15:26;101847.41;;;10.38
64488;BMP280;50864;45.050;39.014;2022-09-09T03:17:57;101848.50;;;10.42
64488;BMP280;50864;45.050;39.014;2022-09-09T03:20:25;101845.34;;;10.45
64488;BMP280;50864;45.050;39.014;2022-09-09T03:22:52;101845.66;;;10.48
64488;BMP280;50864;45.050;39.014;2022-09-09T03:25:19;101847.28;;;10.49
64488;BMP280;50864;45.050;39.014;2022-09-09T03:27:46;101847.28;;;10.54
64488;BMP280;50864;45.050;39.014;2022-09-09T03:30:12;101836.63;;;10.59
64488;BMP280;50864;45.050;39.014;2022-09-09T03:32:40;101838.84;;;10.68
64488;BMP280;50864;45.050;39.014;2022-09-09T03:35:06;101830.63;;;10.79
64488;BMP280;50864;45.050;39.014;2022-09-09T03:37:33;101820.28;;;10.93
64488;BMP280;50864;45.050;39.014;2022-09-09T03:39:59;101820.37;;;11.08
64488;BMP280;50864;45.050;39.014;2022-09-09T03:42:25;101814.00;;;11.19
64488;BMP280;50864;45.050;39.014;2022-09-09T03:44:52;101822.63;;;11.31
64488;BMP280;50864;45.050;39.014;2022-09-09T03:47:21;101835.31;;;11.46
64488;BMP280;50864;45.050;39.014;2022-09-09T03:49:50;101836.19;;;11.62
64488;BMP280;50864;45.050;39.014;2022-09-09T03:52:16;101837.03;;;11.77
64488;BMP280;50864;45.050;39.014;2022-09-09T03:54:44;101852.38;;;11.97
64488;BMP280;50864;45.050;39.014;2022-09-09T03:57:10;101853.50;;;12.21
64488;BMP280;50864;45.050;39.014;2022-09-09T03:59:37;101856.19;;;12.47
64488;BMP280;50864;45.050;39.014;2022-09-09T04:02:04;101852.41;;;12.73
64488;BMP280;50864;45.050;39.014;2022-09-09T04:04:30;101848.06;;;13.02
64488;BMP280;50864;45.050;39.014;2022-09-09T04:06:57;101852.31;;;13.28
64488;BMP280;50864;45.050;39.014;2022-09-09T04:09:23;101855.94;;;13.58
64488;BMP280;50864;45.050;39.014;2022-09-09T04:11:50;101868.44;;;13.88
64488;BMP280;50864;45.050;39.014;2022-09-09T04:14:16;101870.63;;;14.19
64488;BMP280;50864;45.050;39.014;2022-09-09T04:16:42;101868.19;;;14.52
64488;BMP280;50864;45.050;39.014;2022-09-09T04:19:12;101865.22;;;14.82
64488;BMP280;50864;45.050;39.014;2022-09-09T04:21:40;101864.53;;;15.19
64488;BMP280;50864;45.050;39.014;2022-09-09T04:24:07;101866.19;;;15.57
64488;BMP280;50864;45.050;39.014;2022-09-09T04:26:35;101863.19;;;15.96
64488;BMP280;50864;45.050;39.014;2022-09-09T04:29:03;101865.53;;;16.35
64488;BMP280;50864;45.050;39.014;2022-09-09T04:31:29;101869.41;;;16.75
64488;BMP280;50864;45.050;39.014;2022-09-09T04:33:56;101873.53;;;17.14
64488;BMP280;50864;45.050;39.014;2022-09-09T04:36:23;101870.72;;;17.54
64488;BMP280;50864;45.050;39.014;2022-09-09T04:38:49;101868.19;;;17.94
64488;BMP280;50864;45.050;39.014;2022-09-09T04:41:16;101880.41;;;18.36
64488;BMP280;50864;45.050;39.014;2022-09-09T04:43:43;101893.47;;;18.73
64488;BMP280;50864;45.050;39.014;2022-09-09T04:46:09;101890.25;;;19.10
64488;BMP280;50864;45.050;39.014;2022-09-09T04:48:36;101895.41;;;19.55
64488;BMP280;50864;45.050;39.014;2022-09-09T04:51:04;101890.28;;;19.96
64488;BMP280;50864;45.050;39.014;2022-09-09T04:53:32;101878.13;;;20.40
64488;BMP280;50864;45.050;39.014;2022-09-09T04:56:07;101882.91;;;20.81
64488;BMP280;50864;45.050;39.014;2022-09-09T04:58:33;101886.94;;;21.25
64488;BMP280;50864;45.050;39.014;2022-09-09T05:01:07;101880.41;;;21.59
64488;BMP280;50864;45.050;39.014;2022-09-09T05:03:35;101889.38;;;21.92
64488;BMP280;50864;45.050;39.014;2022-09-09T05:06:05;101888.59;;;22.28
64488;BMP280;50864;45.050;39.014;2022-09-09T05:08:32;101872.84;;;22.58
64488;BMP280;50864;45.050;39.014;2022-09-09T05:10:58;101869.56;;;22.92
64488;BMP280;50864;45.050;39.014;2022-09-09T05:13:26;101876.00;;;23.12
64488;BMP280;50864;45.050;39.014;2022-09-09T05:15:54;101877.78;;;23.47
64488;BMP280;50864;45.050;39.014;2022-09-09T05:18:21;101874.94;;;23.87
64488;BMP280;50864;45.050;39.014;2022-09-09T05:20:49;101877.97;;;24.29
64488;BMP280;50864;45.050;39.014;2022-09-09T05:23:17;101866.44;;;24.74
64488;BMP280;50864;45.050;39.014;2022-09-09T05:25:43;101872.34;;;25.14
64488;BMP280;50864;45.050;39.014;2022-09-09T05:28:09;101874.50;;;25.66
64488;BMP280;50864;45.050;39.014;2022-09-09T05:30:37;101875.62;;;26.11
64488;BMP280;50864;45.050;39.014;2022-09-09T05:33:05;101870.56;;;26.39
64488;BMP280;50864;45.050;39.014;2022-09-09T05:35:32;101870.31;;;26.77
64488;BMP280;50864;45.050;39.014;2022-09-09T05:37:59;101873.84;;;27.14
64488;BMP280;50864;45.050;39.014;2022-09-09T05:40:26;101884.81;;;27.51
64488;BMP280;50864;45.050;39.014;2022-09-09T05:42:52;101891.56;;;27.61
64488;BMP280;50864;45.050;39.014;2022-09-09T05:45:19;101885.06;;;27.79
64488;BMP280;50864;45.050;39.014;2022-09-09T05:47:51;101887.28;;;28.14
64488;BMP280;50864;45.050;39.014;2022-09-09T05:50:19;101884.19;;;28.30
64488;BMP280;50864;45.050;39.014;2022-09-09T05:52:45;101878.88;;;28.69
64488;BMP280;50864;45.050;39.014;2022-09-09T05:55:11;101867.59;;;29.23
64488;BMP280;50864;45.050;39.014;2022-09-09T05:57:38;101871.94;;;29.56
64488;BMP280;50864;45.050;39.014;2022-09-09T06:00:05;101876.19;;;29.88
64488;BMP280;50864;45.050;39.014;2022-09-09T06:02:39;101882.84;;;30.26
64488;BMP280;50864;45.050;39.014;2022-09-09T06:05:07;101885.88;;;30.53
64488;BMP280;50864;45.050;39.014;2022-09-09T06:07:34;101884.47;;;30.89
64488;BMP280;50864;45.050;39.014;2022-09-09T06:10:01;101889.72;;;30.77
64488;BMP280;50864;45.050;39.014;2022-09-09T06:12:29;101883.72;;;30.89
64488;BMP280;50864;45.050;39.014;2022-09-09T06:14:55;101883.88;;;31.19
64488;BMP280;50864;45.050;39.014;2022-09-09T06:17:22;101879.91;;;31.64
64488;BMP280;50864;45.050;39.014;2022-09-09T06:19:52;101879.47;;;32.07
64488;BMP280;50864;45.050;39.014;2022-09-09T06:22:19;101877.50;;;32.03
64488;BMP280;50864;45.050;39.014;2022-09-09T06:24:45;101872.97;;;31.83
64488;BMP280;50864;45.050;39.014;2022-09-09T06:27:11;101878.31;;;31.67
64488;BMP280;50864;45.050;39.014;2022-09-09T06:29:39;101881.00;;;31.74
64488;BMP280;50864;45.050;39.014;2022-09-09T06:32:06;101876.16;;;32.19
64488;BMP280;50864;45.050;39.014;2022-09-09T06:34:34;101871.91;;;32.67
64488;BMP280;50864;45.050;39.014;2022-09-09T06:37:02;101866.16;;;32.25
64488;BMP280;50864;45.050;39.014;2022-09-09T06:39:29;101876.25;;;31.74
64488;BMP280;50864;45.050;39.014;2022-09-09T06:41:55;101874.06;;;31.55
64488;BMP280;50864;45.050;39.014;2022-09-09T06:44:27;101873.91;;;31.73
64488;BMP280;50864;45.050;39.014;2022-09-09T06:46:53;101876.88;;;32.23
64488;BMP280;50864;45.050;39.014;2022-09-09T06:49:20;101864.53;;;32.57
64488;BMP280;50864;45.050;39.014;2022-09-09T06:51:56;101870.00;;;32.34
64488;BMP280;50864;45.050;39.014;2022-09-09T06:54:24;101867.87;;;32.15
64488;BMP280;50864;45.050;39.014;2022-09-09T06:56:51;101873.63;;;32.28
64488;BMP280;50864;45.050;39.014;2022-09-09T06:59:18;101875.16;;;32.02
64488;BMP280;50864;45.050;39.014;2022-09-09T07:01:45;101870.53;;;32.22
64488;BMP280;50864;45.050;39.014;2022-09-09T07:04:13;101870.53;;;32.22
64488;BMP280;50864;45.050;39.014;2022-09-09T07:06:41;101872.03;;;32.30
64488;BMP280;50864;45.050;39.014;2022-09-09T07:09:12;101873.53;;;32.65
64488;BMP280;50864;45.050;39.014;2022-09-09T07:11:45;101867.25;;;32.61
64488;BMP280;50864;45.050;39.014;2022-09-09T15:54:04;101874.50;;;32.78
64488;BMP280;50864;45.050;39.014;2022-09-09T15:56:31;101874.50;;;32.78
64488;BMP280;50864;45.050;39.014;2022-09-09T15:58:59;101716.34;;;22.38
64488;BMP280;50864;45.050;39.014;2022-09-09T16:01:27;101713.03;;;22.32
64488;BMP280;50864;45.050;39.014;2022-09-09T16:03:53;101724.16;;;22.27
64488;BMP280;50864;45.050;39.014;2022-09-09T16:06:22;101720.56;;;22.23
64488;BMP280;50864;45.050;39.014;2022-09-09T16:08:50;101717.50;;;22.25
64488;BMP280;50864;45.050;39.014;2022-09-09T16:11:23;101719.41;;;22.24
64488;BMP280;50864;45.050;39.014;2022-09-09T16:13:51;101729.75;;;22.19
64488;BMP280;50864;45.050;39.014;2022-09-09T16:16:21;101735.66;;;22.09
64488;BMP280;50864;45.050;39.014;2022-09-09T16:21:55;101738.87;;;21.74
64488;BMP280;50864;45.050;39.014;2022-09-09T16:24:21;101744.41;;;21.66
64488;BMP280;50864;45.050;39.014;2022-09-09T16:26:52;101747.78;;;21.63
64488;BMP280;50864;45.050;39.014;2022-09-09T16:29:21;101747.91;;;21.54
64488;BMP280;50864;45.050;39.014;2022-09-09T16:31:48;101749.16;;;21.45
64488;BMP280;50864;45.050;39.014;2022-09-09T16:34:15;101756.13;;;21.34
64488;BMP280;50864;45.050;39.014;2022-09-09T16:36:42;101757.00;;;21.25
64488;BMP280;50864;45.050;39.014;2022-09-09T16:39:12;101767.66;;;21.18
64488;BMP280;50864;45.050;39.014;2022-09-09T16:41:39;101761.84;;;21.08
64488;BMP280;50864;45.050;39.014;2022-09-09T16:44:09;101775.50;;;20.99
64488;BMP280;50864;45.050;39.014;2022-09-09T16:46:37;101778.31;;;20.91
64488;BMP280;50864;45.050;39.014;2022-09-09T16:49:06;101781.59;;;20.84
64488;BMP280;50864;45.050;39.014;2022-09-09T16:51:44;101786.09;;;20.80
64488;BMP280;50864;45.050;39.014;2022-09-09T16:54:16;101789.19;;;20.70
64488;BMP280;50864;45.050;39.014;2022-09-09T16:56:45;101793.44;;;20.59
64488;BMP280;50864;45.050;39.014;2022-09-09T16:59:19;101790.75;;;20.50
64488;BMP280;50864;45.050;39.014;2022-09-09T17:01:50;101796.25;;;20.42
64488;BMP280;50864;45.050;39.014;2022-09-09T17:04:25;101794.34;;;20.34
64488;BMP280;50864;45.050;39.014;2022-09-09T17:06:53;101802.22;;;20.27
64488;BMP280;50864;45.050;39.014;2022-09-09T17:09:20;101803.06;;;20.18
64488;BMP280;50864;45.050;39.014;2022-09-09T17:11:48;101799.41;;;20.14
64488;BMP280;50864;45.050;39.014;2022-09-09T17:14:17;101794.62;;;20.11
64488;BMP280;50864;45.050;39.014;2022-09-09T17:16:44;101795.63;;;20.07
64488;BMP280;50864;45.050;39.014;2022-09-09T17:19:11;101802.00;;;20.02
64488;BMP280;50864;45.050;39.014;2022-09-09T17:21:38;101802.16;;;19.97
64488;BMP280;50864;45.050;39.014;2022-09-09T17:24:04;101790.72;;;19.92
64488;BMP280;50864;45.050;39.014;2022-09-09T17:26:31;101796.78;;;19.89
64488;BMP280;50864;45.050;39.014;2022-09-09T17:29:00;101803.34;;;19.88
64488;BMP280;50864;45.050;39.014;2022-09-09T17:31:28;101799.19;;;19.82
64488;BMP280;50864;45.050;39.014;2022-09-09T17:33:55;101804.81;;;19.77
64488;BMP280;50864;45.050;39.014;2022-09-09T17:36:24;101799.22;;;19.73
64488;BMP280;50864;45.050;39.014;2022-09-09T17:38:51;101795.87;;;19.67
64488;BMP280;50864;45.050;39.014;2022-09-09T17:41:21;101797.34;;;19.65
64488;BMP280;50864;45.050;39.014;2022-09-09T17:43:49;101794.75;;;19.60
64488;BMP280;50864;45.050;39.014;2022-09-09T17:46:31;101796.41;;;19.52
64488;BMP280;50864;45.050;39.014;2022-09-09T17:49:03;101800.38;;;19.46
64488;BMP280;50864;45.050;39.014;2022-09-09T17:51:31;101801.19;;;19.38
64488;BMP280;50864;45.050;39.014;2022-09-09T17:54:04;101802.13;;;19.34
64488;BMP280;50864;45.050;39.014;2022-09-09T17:56:35;101800.53;;;19.33
64488;BMP280;50864;45.050;39.014;2022-09-09T17:59:04;101801.19;;;19.30
64488;BMP280;50864;45.050;39.014;2022-09-09T18:01:36;101803.13;;;19.29
64488;BMP280;50864;45.050;39.014;2022-09-09T18:04:04;101805.97;;;19.24
64488;BMP280;50864;45.050;39.014;2022-09-09T18:06:40;101798.78;;;19.20
64488;BMP280;50864;45.050;39.014;2022-09-09T18:09:12;101805.66;;;19.17
64488;BMP280;50864;45.050;39.014;2022-09-09T18:11:56;101807.09;;;19.14
64488;BMP280;50864;45.050;39.014;2022-09-09T18:14:36;101809.94;;;19.09
64488;BMP280;50864;45.050;39.014;2022-09-09T18:17:02;101802.75;;;19.05
64488;BMP280;50864;45.050;39.014;2022-09-09T18:19:49;101811.38;;;19.07
64488;BMP280;50864;45.050;39.014;2022-09-09T18:22:15;101805.66;;;19.08
64488;BMP280;50864;45.050;39.014;2022-09-09T18:24:41;101806.63;;;19.12
64488;BMP280;50864;45.050;39.014;2022-09-09T18:27:10;101805.81;;;19.12
64488;BMP280;50864;45.050;39.014;2022-09-09T18:29:36;101813.63;;;19.22
64488;BMP280;50864;45.050;39.014;2022-09-09T18:32:02;101811.91;;;19.26
64488;BMP280;50864;45.050;39.014;2022-09-09T18:34:29;101813.00;;;19.25
64488;BMP280;50864;45.050;39.014;2022-09-09T18:36:56;101808.84;;;19.28
64488;BMP280;50864;45.050;39.014;2022-09-09T18:39:24;101800.53;;;19.33
64488;BMP280;50864;45.050;39.014;2022-09-09T18:42:11;101803.59;;;19.40
64488;BMP280;50864;45.050;39.014;2022-09-09T18:44:38;101803.37;;;19.45
64488;BMP280;50864;45.050;39.014;2022-09-09T18:47:05;101804.53;;;19.44
64488;BMP280;50864;45.050;39.014;2022-09-09T18:49:32;101811.53;;;19.45
64488;BMP280;50864;45.050;39.014;2022-09-09T18:52:02;101809.50;;;19.42
64488;BMP280;50864;45.050;39.014;2022-09-09T18:54:30;101801.66;;;19.40
64488;BMP280;50864;45.050;39.014;2022-09-09T18:56:58;101802.47;;;19.41
64488;BMP280;50864;45.050;39.014;2022-09-09T18:59:26;101797.84;;;19.41
64488;BMP280;50864;45.050;39.014;2022-09-09T19:01:53;101790.50;;;19.42
64488;BMP280;50864;45.050;39.014;2022-09-09T19:04:21;101795.59;;;19.43
64488;BMP280;50864;45.050;39.014;2022-09-09T19:06:48;101789.37;;;19.43
64488;BMP280;50864;45.050;39.014;2022-09-09T19:09:17;101787.31;;;19.40
64488;BMP280;50864;45.050;39.014;2022-09-09T19:11:43;101777.56;;;19.39
64488;BMP280;50864;45.050;39.014;2022-09-09T19:14:14;101773.72;;;19.40
64488;BMP280;50864;45.050;39.014;2022-09-09T19:16:42;101781.66;;;19.45
64488;BMP280;50864;45.050;39.014;2022-09-09T19:19:21;101777.84;;;19.46
64488;BMP280;50864;45.050;39.014;2022-09-09T19:21:48;101776.44;;;19.48
64488;BMP280;50864;45.050;39.014;2022-09-09T19:24:22;101779.13;;;19.48
64488;BMP280;50864;45.050;39.014;2022-09-09T19:26:51;101779.91;;;19.49
64488;BMP280;50864;45.050;39.014;2022-09-09T19:29:20;101773.22;;;19.46
64488;BMP280;50864;45.050;39.014;2022-09-09T19:31:48;101776.56;;;19.43
64488;BMP280;50864;45.050;39.014;2022-09-09T19:34:24;101781.53;;;19.41
64488;BMP280;50864;45.050;39.014;2022-09-09T19:36:50;101785.69;;;19.39
64488;BMP280;50864;45.050;39.014;2022-09-09T19:39:17;101786.00;;;19.37
64488;BMP280;50864;45.050;39.014;2022-09-09T19:42:11;101785.22;;;19.37
64488;BMP280;50864;45.050;39.014;2022-09-09T19:44:49;101790.47;;;19.33
64488;BMP280;50864;45.050;39.014;2022-09-09T19:47:16;101788.56;;;19.25
64488;BMP280;50864;45.050;39.014;2022-09-09T19:49:43;101780.91;;;19.27
64488;BMP280;50864;45.050;39.014;2022-09-09T19:52:10;101777.38;;;19.27
64488;BMP280;50864;45.050;39.014;2022-09-09T19:54:36;101786.03;;;19.29
64488;BMP280;50864;45.050;39.014;2022-09-09T19:57:03;101786.66;;;19.26
64488;BMP280;50864;45.050;39.014;2022-09-09T19:59:29;101784.56;;;19.23
64488;BMP280;50864;45.050;39.014;2022-09-09T20:01:55;101780.28;;;19.22
64488;BMP280;50864;45.050;39.014;2022-09-09T20:04:23;101790.16;;;19.18
64488;BMP280;50864;45.050;39.014;2022-09-09T20:06:49;101783.31;;;19.11
64488;BMP280;50864;45.050;39.014;2022-09-09T20:09:18;101779.28;;;19.09
64488;BMP280;50864;45.050;39.014;2022-09-09T20:11:47;101772.75;;;19.10
64488;BMP280;50864;45.050;39.014;2022-09-09T20:14:14;101766.22;;;19.11
64488;BMP280;50864;45.050;39.014;2022-09-09T20:16:41;101764.31;;;19.11
64488;BMP280;50864;45.050;39.014;2022-09-09T20:19:10;101766.53;;;19.09
64488;BMP280;50864;45.050;39.014;2022-09-09T20:21:39;101771.94;;;19.09
64488;BMP280;50864;45.050;39.014;2022-09-09T20:24:07;101774.19;;;19.07
64488;BMP280;50864;45.050;39.014;2022-09-09T20:26:35;101762.84;;;19.05
64488;BMP280;50864;45.050;39.014;2022-09-09T20:29:04;101761.91;;;19.01
64488;BMP280;50864;45.050;39.014;2022-09-09T20:31:32;101761.75;;;18.98
64488;BMP280;50864;45.050;39.014;2022-09-09T20:34:07;101766.69;;;18.96
64488;BMP280;50864;45.050;39.014;2022-09-09T20:36:35;101770.84;;;18.93
64488;BMP280;50864;45.050;39.014;2022-09-09T20:39:11;101772.59;;;18.89
64488;BMP280;50864;45.050;39.014;2022-09-09T20:41:40;101768.28;;;18.88
64488;BMP280;50864;45.050;39.014;2022-09-09T20:44:10;101761.91;;;18.84
64488;BMP280;50864;45.050;39.014;2022-09-09T20:46:41;101771.31;;;18.78
64488;BMP280;50864;45.050;39.014;2022-09-09T20:49:09;101770.34;;;18.74
64488;BMP280;50864;45.050;39.014;2022-09-09T20:51:35;101761.22;;;18.70
64488;BMP280;50864;45.050;39.014;2022-09-09T20:54:09;101762.50;;;18.64
64488;BMP280;50864;45.050;39.014;2022-09-09T20:56:37;101757.22;;;18.59
64488;BMP280;50864;45.050;39.014;2022-09-09T20:59:07;101764.38;;;18.55
64488;BMP280;50864;45.050;39.014;2022-09-09T21:01:36;101769.31;;;18.53
64488;BMP280;50864;45.050;39.014;2022-09-09T21:04:04;101760.25;;;18.49
64488;BMP280;50864;45.050;39.014;2022-09-09T21:06:30;101767.25;;;18.50
64488;BMP280;50864;45.050;39.014;2022-09-09T21:08:56;101764.88;;;18.48
64488;BMP280;50864;45.050;39.014;2022-09-09T21:11:22;101755.44;;;18.46
64488;BMP280;50864;45.050;39.014;2022-09-09T21:13:49;101762.16;;;18.57
64488;BMP280;50864;45.050;39.014;2022-09-09T21:16:18;101759.00;;;18.72
64488;BMP280;50864;45.050;39.014;2022-09-09T21:18:46;101769.53;;;18.82
64488;BMP280;50864;45.050;39.014;2022-09-09T21:21:13;101765.72;;;18.83
64488;BMP280;50864;45.050;39.014;2022-09-09T21:23:40;101763.31;;;18.82
64488;BMP280;50864;45.050;39.014;2022-09-09T21:26:07;101770.03;;;18.84
64488;BMP280;50864;45.050;39.014;2022-09-09T21:28:34;101756.78;;;18.83
64488;BMP280;50864;45.050;39.014;2022-09-09T21:31:02;101754.22;;;18.78
64488;BMP280;50864;45.050;39.014;2022-09-09T21:33:28;101752.47;;;18.73
64488;BMP280;50864;45.050;39.014;2022-09-09T21:36:01;101758.84;;;18.77
64488;BMP280;50864;45.050;39.014;2022-09-09T21:38:27;101752.31;;;18.78
64488;BMP280;50864;45.050;39.014;2022-09-09T21:40:53;101755.50;;;18.80
64488;BMP280;50864;45.050;39.014;2022-09-09T21:43:20;101748.97;;;18.81
64488;BMP280;50864;45.050;39.014;2022-09-09T21:45:48;101757.44;;;18.88
64488;BMP280;50864;45.050;39.014;2022-09-09T21:48:16;101757.94;;;18.90
64488;BMP280;50864;45.050;39.014;2022-09-09T21:50:46;101749.00;;;18.90
64488;BMP280;50864;45.050;39.014;2022-09-09T21:53:14;101749.59;;;18.87
64488;BMP280;50864;45.050;39.014;2022-09-09T21:55:41;101745.63;;;18.84
64488;BMP280;50864;45.050;39.014;2022-09-09T21:58:08;101750.72;;;18.77
64488;BMP280;50864;45.050;39.014;2022-09-09T22:00:35;101744.31;;;18.73
64488;BMP280;50864;45.050;39.014;2022-09-09T22:03:02;101747.66;;;18.70
64488;BMP280;50864;45.050;39.014;2022-09-09T22:05:41;101747.38;;;18.63
64488;BMP280;50864;45.050;39.014;2022-09-09T22:08:13;101746.88;;;18.61
64488;BMP280;50864;45.050;39.014;2022-09-09T22:10:43;101749.22;;;18.54
64488;BMP280;50864;45.050;39.014;2022-09-09T22:13:16;101745.09;;;18.48
64488;BMP280;50864;45.050;39.014;2022-09-09T22:16:04;101742.37;;;18.48
64488;BMP280;50864;45.050;39.014;2022-09-09T22:18:31;101738.19;;;18.42
64488;BMP280;50864;45.050;39.014;2022-09-09T22:21:07;101746.31;;;18.33
64488;BMP280;50864;45.050;39.014;2022-09-09T22:23:34;101738.59;;;18.27
64488;BMP280;50864;45.050;39.014;2022-09-09T22:26:01;101732.69;;;18.16
64488;BMP280;50864;45.050;39.014;2022-09-09T22:28:27;101736.84;;;18.14
64488;BMP280;50864;45.050;39.014;2022-09-09T22:30:55;101739.97;;;18.07
64488;BMP280;50864;45.050;39.014;2022-09-09T22:33:21;101739.50;;;18.05
64488;BMP280;50864;45.050;39.014;2022-09-09T22:35:48;101734.25;;;18.08
64488;BMP280;50864;45.050;39.014;2022-09-09T22:38:15;101745.25;;;18.12
64488;BMP280;50864;45.050;39.014;2022-09-09T22:40:42;101744.50;;;18.12
64488;BMP280;50864;45.050;39.014;2022-09-09T22:43:16;101737.47;;;18.10
64488;BMP280;50864;45.050;39.014;2022-09-09T22:45:44;101744.78;;;18.10
64488;BMP280;50864;45.050;39.014;2022-09-09T22:48:11;101748.31;;;18.10
64488;BMP280;50864;45.050;39.014;2022-09-09T22:50:38;101754.81;;;18.09
64488;BMP280;50864;45.050;39.014;2022-09-09T22:53:05;101753.72;;;18.10
64488;BMP280;50864;45.050;39.014;2022-09-09T22:55:31;101760.38;;;18.04
64488;BMP280;50864;45.050;39.014;2022-09-09T22:57:58;101750.59;;;17.95
64488;BMP280;50864;45.050;39.014;2022-09-09T23:00:25;101747.34;;;17.84
64488;BMP280;50864;45.050;39.014;2022-09-09T23:02:54;101748.25;;;17.71
64488;BMP280;50864;45.050;39.014;2022-09-09T23:05:21;101735.13;;;17.65
64488;BMP280;50864;45.050;39.014;2022-09-09T23:07:49;101723.66;;;17.59
64488;BMP280;50864;45.050;39.014;2022-09-09T23:10:18;101722.16;;;17.53
64488;BMP280;50864;45.050;39.014;2022-09-09T23:12:44;101714.50;;;17.46
64488;BMP280;50864;45.050;39.014;2022-09-09T23:15:12;101722.09;;;17.44
64488;BMP280;50864;45.050;39.014;2022-09-09T23:17:39;101712.59;;;17.47
64488;BMP280;50864;45.050;39.014;2022-09-09T23:20:07;101718.00;;;17.47
64488;BMP280;50864;45.050;39.014;2022-09-09T23:22:36;101719.09;;;17.46
64488;BMP280;50864;45.050;39.014;2022-09-09T23:25:04;101723.72;;;17.45
64488;BMP280;50864;45.050;39.014;2022-09-09T23:27:31;101727.84;;;17.43
64488;BMP280;50864;45.050;39.014;2022-09-09T23:29:58;101734.97;;;17.39